sensor_id;sensor_type;location;lat;lon;timestamp;temperature;humidity
16511;DHT22;8368;48.772;8.754;2023-07-31T00:00:32;13.40;99.90
16511;DHT22;8368;48.772;8.754;2023-07-31T00:02:57;13.40;99.90
16511;DHT22;8368;48.772;8.754;2023-07-31T00:05:23;13.50;99.90
16511;DHT22;8368;48.772;8.754;2023-07-31T00:07:48;13.50;99.90
16511;DHT22;8368;48.772;8.754;2023-07-31T00:10:14;13.60;99.90
16511;DHT22;8368;48.772;8.754;2023-07-31T00:12:41;13.50;99.90
16511;DHT22;8368;48.772;8.754;2023-07-31T00:15:08;13.50;99.90
16511;DHT22;8368;48.772;8.754;2023-07-31T00:17:33;13.50;99.90
16511;DHT22;8368;48.772;8.754;2023-07-31T00:19:59;13.40;99.90
16511;DHT22;8368;48.772;8.754;2023-07-31T00:22:24;13.50;99.90
16511;DHT22;8368;48.772;8.754;2023-07-31T00:24:50;13.40;99.90
16511;DHT22;8368;48.772;8.754;2023-07-31T00:27:15;13.40;99.90
16511;DHT22;8368;48.772;8.754;2023-07-31T00:29:41;13.40;99.90
16511;DHT22;8368;48.772;8.754;2023-07-31T00:32:07;13.40;99.90
16511;DHT22;8368;48.772;8.754;2023-07-31T00:34:32;13.40;99.90
16511;DHT22;8368;48.772;8.754;2023-07-31T00:36:58;13.40;99.90
16511;DHT22;8368;48.772;8.754;2023-07-31T00:39:23;13.50;99.90
16511;DHT22;8368;48.772;8.754;2023-07-31T00:41:49;13.50;99.90
16511;DHT22;8368;48.772;8.754;2023-07-31T00:44:15;13.60;99.90
16511;DHT22;8368;48.772;8.754;2023-07-31T00:46:40;13.60;99.90
16511;DHT22;8368;48.772;8.754;2023-07-31T00:49:06;13.60;99.90
16511;DHT22;8368;48.772;8.754;2023-07-31T00:51:33;13.70;99.90
16511;DHT22;8368;48.772;8.754;2023-07-31T00:53:58;13.70;99.90
16511;DHT22;8368;48.772;8.754;2023-07-31T00:56:25;13.70;99.90
16511;DHT22;8368;48.772;8.754;2023-07-31T00:58:51;13.80;99.90
16511;DHT22;8368;48.772;8.754;2023-07-31T01:01:17;13.80;99.90
16511;DHT22;8368;48.772;8.754;2023-07-31T01:03:42;13.80;99.90
16511;DHT22;8368;48.772;8.754;2023-07-31T01:06:22;13.80;99.90
16511;DHT22;8368;48.772;8.754;2023-07-31T01:09:04;13.80;99.90
16511;DHT22;8368;48.772;8.754;2023-07-31T01:11:35;13.90;99.90
16511;DHT22;8368;48.772;8.754;2023-07-31T01:14:04;13.90;99.90
16511;DHT22;8368;48.772;8.754;2023-07-31T01:16:29;13.90;99.90
16511;DHT22;8368;48.772;8.754;2023-07-31T01:18:55;13.90;99.90
16511;DHT22;8368;48.772;8.754;2023-07-31T01:29:58;13.70;99.90
16511;DHT22;8368;48.772;8.754;2023-07-31T01:32:28;13.60;99.90
16511;DHT22;8368;48.772;8.754;2023-07-31T01:34:53;13.60;99.90
16511;DHT22;8368;48.772;8.754;2023-07-31T01:37:20;13.50;99.90
16511;DHT22;8368;48.772;8.754;2023-07-31T01:39:45;13.40;99.90
16511;DHT22;8368;48.772;8.754;2023-07-31T01:42:11;13.30;99.90
16511;DHT22;8368;48.772;8.754;2023-07-31T01:44:36;13.20;99.90
16511;DHT22;8368;48.772;8.754;2023-07-31T01:47:02;13.30;99.90
16511;DHT22;8368;48.772;8.754;2023-07-31T01:49:27;13.20;99.90
16511;DHT22;8368;48.772;8.754;2023-07-31T01:51:53;13.10;99.90
16511;DHT22;8368;48.772;8.754;2023-07-31T01:54:18;13.10;99.90
16511;DHT22;8368;48.772;8.754;2023-07-31T01:56:44;13.00;99.90
16511;DHT22;8368;48.772;8.754;2023-07-31T01:59:09;12.90;99.90
16511;DHT22;8368;48.772;8.754;2023-07-31T02:01:35;12.90;99.90
16511;DHT22;8368;48.772;8.754;2023-07-31T02:04:00;12.90;99.90
16511;DHT22;8368;48.772;8.754;2023-07-31T02:06:26;12.90;99.90
16511;DHT22;8368;48.772;8.754;2023-07-31T02:08:52;12.90;99.90
16511;DHT22;8368;48.772;8.754;2023-07-31T02:11:18;12.90;99.90
16511;DHT22;8368;48.772;8.754;2023-07-31T02:13:43;12.90;99.90
16511;DHT22;8368;48.772;8.754;2023-07-31T02:16:09;12.90;99.90
16511;DHT22;8368;48.772;8.754;2023-07-31T02:18:34;12.90;99.90
16511;DHT22;8368;48.772;8.754;2023-07-31T02:21:00;12.80;99.90
16511;DHT22;8368;48.772;8.754;2023-07-31T02:23:25;12.80;99.90
16511;DHT22;8368;48.772;8.754;2023-07-31T02:25:51;12.80;99.90
16511;DHT22;8368;48.772;8.754;2023-07-31T02:28:16;12.80;99.90
16511;DHT22;8368;48.772;8.754;2023-07-31T02:30:44;12.80;99.90
16511;DHT22;8368;48.772;8.754;2023-07-31T02:33:11;12.80;99.90
16511;DHT22;8368;48.772;8.754;2023-07-31T02:35:36;12.90;99.90
16511;DHT22;8368;48.772;8.754;2023-07-31T02:38:02;12.90;99.90
16511;DHT22;8368;48.772;8.754;2023-07-31T02:40:28;12.90;99.90
16511;DHT22;8368;48.772;8.754;2023-07-31T02:42:53;12.90;99.90
16511;DHT22;8368;48.772;8.754;2023-07-31T02:45:19;12.90;99.90
16511;DHT22;8368;48.772;8.754;2023-07-31T02:47:44;12.90;99.90
16511;DHT22;8368;48.772;8.754;2023-07-31T02:50:10;12.80;99.90
16511;DHT22;8368;48.772;8.754;2023-07-31T02:52:35;12.90;99.90
16511;DHT22;8368;48.772;8.754;2023-07-31T02:55:01;12.80;99.90
16511;DHT22;8368;48.772;8.754;2023-07-31T02:57:26;12.80;99.90
16511;DHT22;8368;48.772;8.754;2023-07-31T02:59:52;12.90;99.90
16511;DHT22;8368;48.772;8.754;2023-07-31T03:02:18;12.80;99.90
16511;DHT22;8368;48.772;8.754;2023-07-31T03:04:43;12.80;99.90
16511;DHT22;8368;48.772;8.754;2023-07-31T03:07:09;12.80;99.90
16511;DHT22;8368;48.772;8.754;2023-07-31T03:09:34;12.90;99.90
16511;DHT22;8368;48.772;8.754;2023-07-31T03:12:00;12.90;99.90
16511;DHT22;8368;48.772;8.754;2023-07-31T03:14:25;12.90;99.90
16511;DHT22;8368;48.772;8.754;2023-07-31T03:16:53;12.90;99.90
16511;DHT22;8368;48.772;8.754;2023-07-31T03:19:19;12.80;99.90
16511;DHT22;8368;48.772;8.754;2023-07-31T03:21:45;12.80;99.90
16511;DHT22;8368;48.772;8.754;2023-07-31T03:24:10;12.90;99.90
16511;DHT22;8368;48.772;8.754;2023-07-31T03:26:37;12.90;99.90
16511;DHT22;8368;48.772;8.754;2023-07-31T03:29:03;12.90;99.90
16511;DHT22;8368;48.772;8.754;2023-07-31T03:31:29;12.90;99.90
16511;DHT22;8368;48.772;8.754;2023-07-31T03:33:55;12.90;99.90
16511;DHT22;8368;48.772;8.754;2023-07-31T03:36:20;12.90;99.90
16511;DHT22;8368;48.772;8.754;2023-07-31T03:38:46;13.00;99.90
16511;DHT22;8368;48.772;8.754;2023-07-31T03:41:12;13.00;99.90
16511;DHT22;8368;48.772;8.754;2023-07-31T03:43:37;13.00;99.90
16511;DHT22;8368;48.772;8.754;2023-07-31T03:46:03;13.00;99.90
16511;DHT22;8368;48.772;8.754;2023-07-31T03:48:29;13.00;99.90
16511;DHT22;8368;48.772;8.754;2023-07-31T03:50:54;13.00;99.90
16511;DHT22;8368;48.772;8.754;2023-07-31T03:53:20;13.00;99.90
16511;DHT22;8368;48.772;8.754;2023-07-31T03:55:45;13.00;99.90
16511;DHT22;8368;48.772;8.754;2023-07-31T03:58:11;13.00;99.90
16511;DHT22;8368;48.772;8.754;2023-07-31T04:00:36;13.00;99.90
16511;DHT22;8368;48.772;8.754;2023-07-31T04:03:02;13.10;99.90
16511;DHT22;8368;48.772;8.754;2023-07-31T04:05:30;13.10;99.90
16511;DHT22;8368;48.772;8.754;2023-07-31T04:07:55;13.10;99.90
16511;DHT22;8368;48.772;8.754;2023-07-31T04:10:21;13.10;99.90
16511;DHT22;8368;48.772;8.754;2023-07-31T04:12:46;13.10;99.90
16511;DHT22;8368;48.772;8.754;2023-07-31T04:15:12;13.10;99.90
16511;DHT22;8368;48.772;8.754;2023-07-31T04:17:37;13.20;99.90
16511;DHT22;8368;48.772;8.754;2023-07-31T04:20:03;13.20;99.90
16511;DHT22;8368;48.772;8.754;2023-07-31T04:22:29;13.20;99.90
16511;DHT22;8368;48.772;8.754;2023-07-31T04:24:54;13.20;99.90
16511;DHT22;8368;48.772;8.754;2023-07-31T04:27:20;13.20;99.90
16511;DHT22;8368;48.772;8.754;2023-07-31T04:29:45;13.20;99.90
16511;DHT22;8368;48.772;8.754;2023-07-31T04:32:12;13.20;99.90
16511;DHT22;8368;48.772;8.754;2023-07-31T04:34:38;13.20;99.90
16511;DHT22;8368;48.772;8.754;2023-07-31T04:37:04;13.20;99.90
16511;DHT22;8368;48.772;8.754;2023-07-31T04:39:29;13.20;99.90
16511;DHT22;8368;48.772;8.754;2023-07-31T04:41:55;13.20;99.90
16511;DHT22;8368;48.772;8.754;2023-07-31T04:44:20;13.20;99.90
16511;DHT22;8368;48.772;8.754;2023-07-31T04:46:46;13.20;99.90
16511;DHT22;8368;48.772;8.754;2023-07-31T04:49:11;13.20;99.90
16511;DHT22;8368;48.772;8.754;2023-07-31T04:51:37;13.30;99.90
16511;DHT22;8368;48.772;8.754;2023-07-31T04:54:03;13.30;99.90
16511;DHT22;8368;48.772;8.754;2023-07-31T04:56:28;13.30;99.90
16511;DHT22;8368;48.772;8.754;2023-07-31T04:58:54;13.30;99.90
16511;DHT22;8368;48.772;8.754;2023-07-31T05:01:20;13.40;99.90
16511;DHT22;8368;48.772;8.754;2023-07-31T05:03:45;13.40;99.90
16511;DHT22;8368;48.772;8.754;2023-07-31T05:06:11;13.50;99.90
16511;DHT22;8368;48.772;8.754;2023-07-31T05:08:37;13.50;99.90
16511;DHT22;8368;48.772;8.754;2023-07-31T05:11:03;13.60;99.90
16511;DHT22;8368;48.772;8.754;2023-07-31T05:13:28;13.60;99.90
16511;DHT22;8368;48.772;8.754;2023-07-31T05:15:54;13.60;99.90
16511;DHT22;8368;48.772;8.754;2023-07-31T05:18:19;13.70;99.90
16511;DHT22;8368;48.772;8.754;2023-07-31T05:20:45;13.80;99.90
16511;DHT22;8368;48.772;8.754;2023-07-31T05:23:10;13.80;99.90
16511;DHT22;8368;48.772;8.754;2023-07-31T05:25:36;14.00;99.90
16511;DHT22;8368;48.772;8.754;2023-07-31T05:28:02;14.10;99.90
16511;DHT22;8368;48.772;8.754;2023-07-31T05:30:29;14.30;99.90
16511;DHT22;8368;48.772;8.754;2023-07-31T05:32:55;14.40;99.90
16511;DHT22;8368;48.772;8.754;2023-07-31T05:35:20;14.50;99.90
16511;DHT22;8368;48.772;8.754;2023-07-31T05:37:46;14.70;99.90
16511;DHT22;8368;48.772;8.754;2023-07-31T05:40:11;14.80;99.90
16511;DHT22;8368;48.772;8.754;2023-07-31T05:42:37;14.90;99.90
16511;DHT22;8368;48.772;8.754;2023-07-31T05:45:05;15.00;99.90
16511;DHT22;8368;48.772;8.754;2023-07-31T05:47:30;15.00;99.90
16511;DHT22;8368;48.772;8.754;2023-07-31T05:49:56;15.10;99.90
16511;DHT22;8368;48.772;8.754;2023-07-31T05:52:21;15.20;99.90
16511;DHT22;8368;48.772;8.754;2023-07-31T05:54:47;15.30;99.90
16511;DHT22;8368;48.772;8.754;2023-07-31T05:57:13;15.40;99.90
16511;DHT22;8368;48.772;8.754;2023-07-31T05:59:38;15.50;99.90
16511;DHT22;8368;48.772;8.754;2023-07-31T06:02:04;15.60;99.90
16511;DHT22;8368;48.772;8.754;2023-07-31T06:04:29;15.80;99.90
16511;DHT22;8368;48.772;8.754;2023-07-31T06:06:56;15.90;99.90
16511;DHT22;8368;48.772;8.754;2023-07-31T06:09:21;16.00;99.90
16511;DHT22;8368;48.772;8.754;2023-07-31T06:11:47;16.10;99.90
16511;DHT22;8368;48.772;8.754;2023-07-31T06:14:13;16.20;99.90
16511;DHT22;8368;48.772;8.754;2023-07-31T06:16:38;16.20;99.90
16511;DHT22;8368;48.772;8.754;2023-07-31T06:19:04;16.20;99.90
16511;DHT22;8368;48.772;8.754;2023-07-31T06:21:29;16.30;99.90
16511;DHT22;8368;48.772;8.754;2023-07-31T06:23:55;16.40;99.90
16511;DHT22;8368;48.772;8.754;2023-07-31T06:26:20;16.40;99.90
16511;DHT22;8368;48.772;8.754;2023-07-31T06:28:46;16.50;99.90
16511;DHT22;8368;48.772;8.754;2023-07-31T06:31:11;16.60;99.90
16511;DHT22;8368;48.772;8.754;2023-07-31T06:33:37;16.80;99.90
16511;DHT22;8368;48.772;8.754;2023-07-31T06:36:03;16.90;99.90
16511;DHT22;8368;48.772;8.754;2023-07-31T06:38:28;16.90;99.90
16511;DHT22;8368;48.772;8.754;2023-07-31T06:40:54;16.90;99.90
16511;DHT22;8368;48.772;8.754;2023-07-31T06:43:20;16.80;99.90
16511;DHT22;8368;48.772;8.754;2023-07-31T06:45:45;16.80;99.90
16511;DHT22;8368;48.772;8.754;2023-07-31T06:48:11;16.70;99.90
16511;DHT22;8368;48.772;8.754;2023-07-31T06:50:37;16.70;99.90
16511;DHT22;8368;48.772;8.754;2023-07-31T06:53:02;16.80;99.90
16511;DHT22;8368;48.772;8.754;2023-07-31T06:55:28;16.90;99.90
16511;DHT22;8368;48.772;8.754;2023-07-31T06:57:55;17.10;99.90
16511;DHT22;8368;48.772;8.754;2023-07-31T07:00:22;17.20;99.90
16511;DHT22;8368;48.772;8.754;2023-07-31T07:02:48;17.40;99.90
16511;DHT22;8368;48.772;8.754;2023-07-31T07:05:14;17.50;99.90
16511;DHT22;8368;48.772;8.754;2023-07-31T07:07:40;17.30;99.90
16511;DHT22;8368;48.772;8.754;2023-07-31T07:10:06;17.40;99.90
16511;DHT22;8368;48.772;8.754;2023-07-31T07:12:33;17.40;99.90
16511;DHT22;8368;48.772;8.754;2023-07-31T07:14:59;17.50;99.90
16511;DHT22;8368;48.772;8.754;2023-07-31T07:17:26;17.50;99.90
16511;DHT22;8368;48.772;8.754;2023-07-31T07:19:51;17.10;99.90
16511;DHT22;8368;48.772;8.754;2023-07-31T07:22:17;17.10;99.90
16511;DHT22;8368;48.772;8.754;2023-07-31T07:24:43;17.10;99.90
16511;DHT22;8368;48.772;8.754;2023-07-31T07:27:09;17.10;99.90
16511;DHT22;8368;48.772;8.754;2023-07-31T07:29:34;17.00;99.90
16511;DHT22;8368;48.772;8.754;2023-07-31T07:32:00;16.90;99.90
16511;DHT22;8368;48.772;8.754;2023-07-31T07:34:27;16.90;99.90
16511;DHT22;8368;48.772;8.754;2023-07-31T07:36:53;16.80;99.90
16511;DHT22;8368;48.772;8.754;2023-07-31T07:39:18;16.80;99.90
16511;DHT22;8368;48.772;8.754;2023-07-31T07:41:44;16.80;99.90
16511;DHT22;8368;48.772;8.754;2023-07-31T07:44:09;16.90;99.90
16511;DHT22;8368;48.772;8.754;2023-07-31T07:46:35;16.80;99.90
16511;DHT22;8368;48.772;8.754;2023-07-31T07:49:01;16.80;99.90
16511;DHT22;8368;48.772;8.754;2023-07-31T07:51:26;16.90;99.90
16511;DHT22;8368;48.772;8.754;2023-07-31T07:53:52;16.90;99.90
16511;DHT22;8368;48.772;8.754;2023-07-31T07:56:17;16.90;99.90
16511;DHT22;8368;48.772;8.754;2023-07-31T07:58:43;16.90;99.90
16511;DHT22;8368;48.772;8.754;2023-07-31T08:01:08;17.00;99.90
16511;DHT22;8368;48.772;8.754;2023-07-31T08:03:34;16.90;99.90
16511;DHT22;8368;48.772;8.754;2023-07-31T08:06:00;17.00;99.90
16511;DHT22;8368;48.772;8.754;2023-07-31T08:08:27;17.00;99.90
16511;DHT22;8368;48.772;8.754;2023-07-31T08:10:53;17.00;99.90
16511;DHT22;8368;48.772;8.754;2023-07-31T08:13:19;17.00;99.90
16511;DHT22;8368;48.772;8.754;2023-07-31T08:15:44;17.10;99.90
16511;DHT22;8368;48.772;8.754;2023-07-31T08:18:10;17.20;99.90
16511;DHT22;8368;48.772;8.754;2023-07-31T08:20:37;17.30;99.90
16511;DHT22;8368;48.772;8.754;2023-07-31T08:23:02;17.30;99.90
16511;DHT22;8368;48.772;8.754;2023-07-31T08:25:28;17.50;99.90
16511;DHT22;8368;48.772;8.754;2023-07-31T08:27:53;17.70;99.90
16511;DHT22;8368;48.772;8.754;2023-07-31T08:30:19;17.70;99.90
16511;DHT22;8368;48.772;8.754;2023-07-31T08:32:45;17.80;99.90
16511;DHT22;8368;48.772;8.754;2023-07-31T08:35:10;17.80;99.90
16511;DHT22;8368;48.772;8.754;2023-07-31T08:37:37;17.70;99.90
16511;DHT22;8368;48.772;8.754;2023-07-31T08:40:04;17.70;99.90
16511;DHT22;8368;48.772;8.754;2023-07-31T08:42:30;17.90;99.90
16511;DHT22;8368;48.772;8.754;2023-07-31T08:44:56;18.00;99.90
16511;DHT22;8368;48.772;8.754;2023-07-31T08:47:23;18.10;99.90
16511;DHT22;8368;48.772;8.754;2023-07-31T08:49:49;18.20;99.90
16511;DHT22;8368;48.772;8.754;2023-07-31T08:52:16;18.40;99.90
16511;DHT22;8368;48.772;8.754;2023-07-31T08:54:42;18.50;99.90
16511;DHT22;8368;48.772;8.754;2023-07-31T08:57:07;18.70;99.90
16511;DHT22;8368;48.772;8.754;2023-07-31T08:59:35;18.90;99.90
16511;DHT22;8368;48.772;8.754;2023-07-31T09:02:07;19.10;99.90
16511;DHT22;8368;48.772;8.754;2023-07-31T09:04:33;19.30;99.90
16511;DHT22;8368;48.772;8.754;2023-07-31T09:07:03;19.50;99.90
16511;DHT22;8368;48.772;8.754;2023-07-31T09:09:32;19.60;99.90
16511;DHT22;8368;48.772;8.754;2023-07-31T09:11:58;19.50;99.90
16511;DHT22;8368;48.772;8.754;2023-07-31T09:14:25;19.40;99.90
16511;DHT22;8368;48.772;8.754;2023-07-31T09:16:55;19.40;99.90
16511;DHT22;8368;48.772;8.754;2023-07-31T09:19:32;19.20;99.90
16511;DHT22;8368;48.772;8.754;2023-07-31T09:21:59;19.20;99.90
16511;DHT22;8368;48.772;8.754;2023-07-31T09:24:29;19.20;99.90
16511;DHT22;8368;48.772;8.754;2023-07-31T09:26:55;19.30;99.90
16511;DHT22;8368;48.772;8.754;2023-07-31T09:29:22;19.50;99.90
16511;DHT22;8368;48.772;8.754;2023-07-31T09:31:47;19.40;99.90
16511;DHT22;8368;48.772;8.754;2023-07-31T09:34:13;19.40;99.90
16511;DHT22;8368;48.772;8.754;2023-07-31T09:36:46;19.40;99.90
16511;DHT22;8368;48.772;8.754;2023-07-31T09:39:13;19.40;99.90
16511;DHT22;8368;48.772;8.754;2023-07-31T09:41:41;19.50;99.90
16511;DHT22;8368;48.772;8.754;2023-07-31T09:44:07;19.60;99.90
16511;DHT22;8368;48.772;8.754;2023-07-31T09:46:35;19.80;99.90
16511;DHT22;8368;48.772;8.754;2023-07-31T09:49:11;19.90;99.90
16511;DHT22;8368;48.772;8.754;2023-07-31T09:51:38;20.00;99.90
16511;DHT22;8368;48.772;8.754;2023-07-31T09:54:14;20.10;99.90
16511;DHT22;8368;48.772;8.754;2023-07-31T09:56:45;20.10;99.90
16511;DHT22;8368;48.772;8.754;2023-07-31T09:59:12;20.30;99.90
16511;DHT22;8368;48.772;8.754;2023-07-31T10:01:40;20.30;99.90
16511;DHT22;8368;48.772;8.754;2023-07-31T10:04:08;20.50;99.90
16511;DHT22;8368;48.772;8.754;2023-07-31T10:06:34;20.60;99.90
16511;DHT22;8368;48.772;8.754;2023-07-31T10:09:02;20.60;99.90
16511;DHT22;8368;48.772;8.754;2023-07-31T10:11:29;20.70;99.90
16511;DHT22;8368;48.772;8.754;2023-07-31T10:13:55;20.70;99.90
16511;DHT22;8368;48.772;8.754;2023-07-31T10:16:22;20.80;99.90
16511;DHT22;8368;48.772;8.754;2023-07-31T10:18:49;20.80;99.90
16511;DHT22;8368;48.772;8.754;2023-07-31T10:21:15;20.90;99.90
16511;DHT22;8368;48.772;8.754;2023-07-31T10:23:42;21.00;99.90
16511;DHT22;8368;48.772;8.754;2023-07-31T10:26:08;20.80;99.90
16511;DHT22;8368;48.772;8.754;2023-07-31T10:28:36;20.90;99.90
16511;DHT22;8368;48.772;8.754;2023-07-31T10:31:03;20.80;99.90
16511;DHT22;8368;48.772;8.754;2023-07-31T10:33:29;20.90;99.90
16511;DHT22;8368;48.772;8.754;2023-07-31T10:36:16;21.00;99.90
16511;DHT22;8368;48.772;8.754;2023-07-31T10:38:43;21.10;99.90
16511;DHT22;8368;48.772;8.754;2023-07-31T10:41:11;21.20;99.90
16511;DHT22;8368;48.772;8.754;2023-07-31T10:43:37;21.40;99.90
16511;DHT22;8368;48.772;8.754;2023-07-31T10:46:07;21.70;99.90
16511;DHT22;8368;48.772;8.754;2023-07-31T10:48:34;21.90;99.90
16511;DHT22;8368;48.772;8.754;2023-07-31T10:51:10;22.10;99.90
16511;DHT22;8368;48.772;8.754;2023-07-31T10:53:35;22.20;99.90
16511;DHT22;8368;48.772;8.754;2023-07-31T10:56:05;22.50;99.90
16511;DHT22;8368;48.772;8.754;2023-07-31T10:58:32;22.50;99.90
16511;DHT22;8368;48.772;8.754;2023-07-31T11:01:00;22.10;99.90
16511;DHT22;8368;48.772;8.754;2023-07-31T11:03:40;22.00;99.90
16511;DHT22;8368;48.772;8.754;2023-07-31T11:06:06;21.80;99.90
16511;DHT22;8368;48.772;8.754;2023-07-31T11:08:33;21.80;99.90
16511;DHT22;8368;48.772;8.754;2023-07-31T11:16:16;21.90;99.90
16511;DHT22;8368;48.772;8.754;2023-07-31T11:18:46;22.00;99.90
16511;DHT22;8368;48.772;8.754;2023-07-31T11:21:18;21.90;99.90
16511;DHT22;8368;48.772;8.754;2023-07-31T11:23:49;22.00;99.90
16511;DHT22;8368;48.772;8.754;2023-07-31T11:26:15;22.20;99.90
16511;DHT22;8368;48.772;8.754;2023-07-31T11:28:40;22.20;99.90
16511;DHT22;8368;48.772;8.754;2023-07-31T11:31:10;22.10;99.90
16511;DHT22;8368;48.772;8.754;2023-07-31T11:33:36;21.90;99.90
16511;DHT22;8368;48.772;8.754;2023-07-31T11:36:02;21.60;99.90
16511;DHT22;8368;48.772;8.754;2023-07-31T11:38:30;21.50;99.90
16511;DHT22;8368;48.772;8.754;2023-07-31T11:41:02;21.50;99.90
16511;DHT22;8368;48.772;8.754;2023-07-31T11:43:29;21.50;99.90
16511;DHT22;8368;48.772;8.754;2023-07-31T11:45:58;21.50;99.90
16511;DHT22;8368;48.772;8.754;2023-07-31T11:48:26;21.50;99.90
16511;DHT22;8368;48.772;8.754;2023-07-31T11:50:53;21.50;99.90
16511;DHT22;8368;48.772;8.754;2023-07-31T11:53:34;21.60;99.90
16511;DHT22;8368;48.772;8.754;2023-07-31T11:56:01;21.60;99.90
16511;DHT22;8368;48.772;8.754;2023-07-31T11:58:30;21.70;99.90
16511;DHT22;8368;48.772;8.754;2023-07-31T12:00:56;21.50;99.90
16511;DHT22;8368;48.772;8.754;2023-07-31T12:03:23;21.50;99.90
16511;DHT22;8368;48.772;8.754;2023-07-31T12:05:49;21.60;99.90
16511;DHT22;8368;48.772;8.754;2023-07-31T12:08:14;21.50;99.90
16511;DHT22;8368;48.772;8.754;2023-07-31T12:10:41;21.50;99.90
16511;DHT22;8368;48.772;8.754;2023-07-31T12:13:09;21.40;99.90
16511;DHT22;8368;48.772;8.754;2023-07-31T12:15:44;21.30;99.90
16511;DHT22;8368;48.772;8.754;2023-07-31T12:18:15;21.40;99.90
16511;DHT22;8368;48.772;8.754;2023-07-31T12:20:48;21.60;99.90
16511;DHT22;8368;48.772;8.754;2023-07-31T12:23:21;21.80;99.90
16511;DHT22;8368;48.772;8.754;2023-07-31T12:26:12;22.00;99.90
16511;DHT22;8368;48.772;8.754;2023-07-31T12:28:45;22.00;99.90
16511;DHT22;8368;48.772;8.754;2023-07-31T12:31:13;22.50;99.90
16511;DHT22;8368;48.772;8.754;2023-07-31T12:33:41;22.60;99.90
16511;DHT22;8368;48.772;8.754;2023-07-31T12:36:10;22.60;99.90
16511;DHT22;8368;48.772;8.754;2023-07-31T12:38:36;22.70;99.90
16511;DHT22;8368;48.772;8.754;2023-07-31T12:41:01;22.80;99.90
16511;DHT22;8368;48.772;8.754;2023-07-31T12:43:27;22.80;99.90
16511;DHT22;8368;48.772;8.754;2023-07-31T12:45:54;22.90;99.90
16511;DHT22;8368;48.772;8.754;2023-07-31T12:48:20;22.90;99.90
16511;DHT22;8368;48.772;8.754;2023-07-31T12:50:46;22.40;99.90
16511;DHT22;8368;48.772;8.754;2023-07-31T12:53:11;22.40;99.90
16511;DHT22;8368;48.772;8.754;2023-07-31T12:55:37;22.20;99.90
16511;DHT22;8368;48.772;8.754;2023-07-31T12:58:03;22.10;99.90
16511;DHT22;8368;48.772;8.754;2023-07-31T13:00:28;22.00;99.90
16511;DHT22;8368;48.772;8.754;2023-07-31T13:02:54;22.00;99.90
16511;DHT22;8368;48.772;8.754;2023-07-31T13:05:20;22.10;99.90
16511;DHT22;8368;48.772;8.754;2023-07-31T13:07:46;22.10;99.90
16511;DHT22;8368;48.772;8.754;2023-07-31T13:10:12;22.10;99.90
16511;DHT22;8368;48.772;8.754;2023-07-31T13:12:37;22.10;99.90
16511;DHT22;8368;48.772;8.754;2023-07-31T13:15:04;22.20;99.90
16511;DHT22;8368;48.772;8.754;2023-07-31T13:17:30;22.10;99.90
16511;DHT22;8368;48.772;8.754;2023-07-31T13:19:56;21.90;99.90
16511;DHT22;8368;48.772;8.754;2023-07-31T13:22:21;21.90;99.90
16511;DHT22;8368;48.772;8.754;2023-07-31T13:24:47;21.80;99.90
16511;DHT22;8368;48.772;8.754;2023-07-31T13:27:13;21.60;99.90
16511;DHT22;8368;48.772;8.754;2023-07-31T13:29:39;21.60;99.90
16511;DHT22;8368;48.772;8.754;2023-07-31T13:32:05;21.40;99.90
16511;DHT22;8368;48.772;8.754;2023-07-31T13:34:30;21.30;99.90
16511;DHT22;8368;48.772;8.754;2023-07-31T13:36:56;21.10;99.90
16511;DHT22;8368;48.772;8.754;2023-07-31T13:39:22;21.00;99.90
16511;DHT22;8368;48.772;8.754;2023-07-31T13:41:47;20.90;99.90
16511;DHT22;8368;48.772;8.754;2023-07-31T13:44:14;20.80;99.90
16511;DHT22;8368;48.772;8.754;2023-07-31T13:46:39;20.80;99.90
16511;DHT22;8368;48.772;8.754;2023-07-31T13:49:05;20.80;99.90
16511;DHT22;8368;48.772;8.754;2023-07-31T13:51:30;20.90;99.90
16511;DHT22;8368;48.772;8.754;2023-07-31T13:53:56;21.00;99.90
16511;DHT22;8368;48.772;8.754;2023-07-31T13:56:21;21.10;99.90
16511;DHT22;8368;48.772;8.754;2023-07-31T13:58:47;21.40;99.90
16511;DHT22;8368;48.772;8.754;2023-07-31T14:01:13;21.60;99.90
16511;DHT22;8368;48.772;8.754;2023-07-31T14:03:38;21.70;99.90
16511;DHT22;8368;48.772;8.754;2023-07-31T14:06:04;21.70;99.90
16511;DHT22;8368;48.772;8.754;2023-07-31T14:08:29;21.60;99.90
16511;DHT22;8368;48.772;8.754;2023-07-31T14:10:55;21.60;99.90
16511;DHT22;8368;48.772;8.754;2023-07-31T14:13:21;21.70;99.90
16511;DHT22;8368;48.772;8.754;2023-07-31T14:15:47;21.70;99.90
16511;DHT22;8368;48.772;8.754;2023-07-31T14:18:13;21.80;99.90
16511;DHT22;8368;48.772;8.754;2023-07-31T14:20:38;21.70;99.90
16511;DHT22;8368;48.772;8.754;2023-07-31T14:23:04;21.70;99.90
16511;DHT22;8368;48.772;8.754;2023-07-31T14:25:29;21.50;99.90
16511;DHT22;8368;48.772;8.754;2023-07-31T14:27:55;21.50;99.90
16511;DHT22;8368;48.772;8.754;2023-07-31T14:30:20;21.50;99.90
16511;DHT22;8368;48.772;8.754;2023-07-31T14:32:46;21.40;99.90
16511;DHT22;8368;48.772;8.754;2023-07-31T14:35:12;21.30;99.90
16511;DHT22;8368;48.772;8.754;2023-07-31T14:37:42;21.30;99.90
16511;DHT22;8368;48.772;8.754;2023-07-31T14:40:09;21.40;99.90
16511;DHT22;8368;48.772;8.754;2023-07-31T14:42:36;21.30;99.90
16511;DHT22;8368;48.772;8.754;2023-07-31T14:45:05;21.20;99.90
16511;DHT22;8368;48.772;8.754;2023-07-31T14:47:31;21.20;99.90
16511;DHT22;8368;48.772;8.754;2023-07-31T14:49:57;21.20;99.90
16511;DHT22;8368;48.772;8.754;2023-07-31T14:52:23;21.20;99.90
16511;DHT22;8368;48.772;8.754;2023-07-31T14:54:49;21.20;99.90
16511;DHT22;8368;48.772;8.754;2023-07-31T14:57:14;21.30;99.90
16511;DHT22;8368;48.772;8.754;2023-07-31T14:59:40;21.40;99.90
16511;DHT22;8368;48.772;8.754;2023-07-31T15:02:06;21.40;99.90
16511;DHT22;8368;48.772;8.754;2023-07-31T15:04:32;21.40;99.90
16511;DHT22;8368;48.772;8.754;2023-07-31T15:06:57;21.40;99.90
16511;DHT22;8368;48.772;8.754;2023-07-31T15:09:23;21.30;99.90
16511;DHT22;8368;48.772;8.754;2023-07-31T15:11:48;21.30;99.90
16511;DHT22;8368;48.772;8.754;2023-07-31T15:14:14;21.20;99.90
16511;DHT22;8368;48.772;8.754;2023-07-31T15:16:39;21.40;99.90
16511;DHT22;8368;48.772;8.754;2023-07-31T15:19:05;21.40;99.90
16511;DHT22;8368;48.772;8.754;2023-07-31T15:21:30;21.40;99.90
16511;DHT22;8368;48.772;8.754;2023-07-31T15:23:56;21.40;99.90
16511;DHT22;8368;48.772;8.754;2023-07-31T15:26:21;21.50;99.90
16511;DHT22;8368;48.772;8.754;2023-07-31T15:28:50;21.60;99.90
16511;DHT22;8368;48.772;8.754;2023-07-31T15:31:20;21.70;99.90
16511;DHT22;8368;48.772;8.754;2023-07-31T15:33:47;21.80;99.90
16511;DHT22;8368;48.772;8.754;2023-07-31T15:36:13;21.80;99.90
16511;DHT22;8368;48.772;8.754;2023-07-31T15:38:39;21.80;99.90
16511;DHT22;8368;48.772;8.754;2023-07-31T15:41:04;21.70;99.90
16511;DHT22;8368;48.772;8.754;2023-07-31T15:43:30;21.60;99.90
16511;DHT22;8368;48.772;8.754;2023-07-31T15:45:56;21.60;99.90
16511;DHT22;8368;48.772;8.754;2023-07-31T15:48:21;21.70;99.90
16511;DHT22;8368;48.772;8.754;2023-07-31T15:50:47;21.80;99.90
16511;DHT22;8368;48.772;8.754;2023-07-31T15:53:12;21.80;99.90